Time;durP1;ratioP1;P1;durP2;ratioP2;P2;SDS_P1;SDS_P2;PMS_P1;PMS_P2;Temp;Humidity;BMP_temperature;BMP_pressure;BME280_temperature;BME280_humidity;BME280_pressure;Samples;Min_cycle;Max_cycle;Signal;HPM_P1;HPM_P2
2023/12/08 00:01:18;;;;;;;26.23;15.02;;;4.50;99.90;;;;;;4978553;28;20070;-80
2023/12/08 00:03:44;;;;;;;26.25;14.55;;;4.50;99.90;;;;;;4977526;28;20430;-78
2023/12/08 00:06:10;;;;;;;23.63;14.25;;;4.50;99.90;;;;;;4978525;28;20465;-78
2023/12/08 00:08:37;;;;;;;26.13;15.52;;;4.50;99.90;;;;;;4977281;28;20018;-77
2023/12/08 00:11:04;;;;;;;25.38;14.63;;;4.50;99.90;;;;;;4979204;28;20050;-80
2023/12/08 00:13:30;;;;;;;25.40;13.88;;;4.50;99.90;;;;;;4978740;28;20034;-79
2023/12/08 00:15:56;;;;;;;26.05;14.18;;;4.50;99.90;;;;;;4977300;28;20444;-79
2023/12/08 00:18:22;;;;;;;26.48;14.55;;;4.50;99.90;;;;;;4972784;28;20055;-76
2023/12/08 00:20:48;;;;;;;21.95;13.15;;;4.50;99.90;;;;;;4970351;28;20138;-80
2023/12/08 00:23:14;;;;;;;25.42;13.02;;;4.50;99.90;;;;;;4970512;28;20098;-79
2023/12/08 00:25:41;;;;;;;24.63;13.40;;;4.50;99.90;;;;;;4969466;28;20140;-79
2023/12/08 00:28:06;;;;;;;23.92;14.20;;;4.50;99.90;;;;;;4977254;28;20015;-75
2023/12/08 00:30:33;;;;;;;23.67;14.25;;;4.50;99.90;;;;;;4977016;28;20086;-79
2023/12/08 00:32:59;;;;;;;23.52;14.93;;;4.50;99.90;;;;;;4976519;28;20443;-77
2023/12/08 00:35:24;;;;;;;22.33;12.57;;;4.50;99.90;;;;;;4977559;28;20070;-80
2023/12/08 00:37:50;;;;;;;23.30;14.52;;;4.50;99.90;;;;;;4977226;28;20027;-79
2023/12/08 00:40:17;;;;;;;26.00;14.15;;;4.50;99.90;;;;;;4959455;28;20038;-76
2023/12/08 00:42:43;;;;;;;24.85;14.18;;;4.40;99.90;;;;;;4960463;28;20058;-75
2023/12/08 00:45:09;;;;;;;24.60;13.82;;;4.40;99.90;;;;;;4977262;28;20467;-79
2023/12/08 00:47:35;;;;;;;23.73;13.57;;;4.40;99.90;;;;;;4977220;28;20018;-79
2023/12/08 00:50:01;;;;;;;24.30;13.48;;;4.40;99.90;;;;;;4977233;28;20033;-77
2023/12/08 00:52:27;;;;;;;24.70;14.00;;;4.50;99.90;;;;;;4978700;28;20533;-77
2023/12/08 00:54:53;;;;;;;23.52;14.20;;;4.50;99.90;;;;;;4977528;28;20019;-79
2023/12/08 00:57:19;;;;;;;21.67;12.73;;;4.50;99.90;;;;;;4977112;28;20026;-79
2023/12/08 00:59:45;;;;;;;24.25;12.23;;;4.50;99.90;;;;;;4977485;28;20042;-79
2023/12/08 01:02:11;;;;;;;21.65;12.55;;;4.40;99.90;;;;;;4978618;28;20051;-78
2023/12/08 01:04:37;;;;;;;21.10;11.98;;;4.40;99.90;;;;;;4979745;28;20061;-80
2023/12/08 01:07:03;;;;;;;20.25;12.50;;;4.40;99.90;;;;;;4977260;28;20022;-75
2023/12/08 01:09:29;;;;;;;22.02;12.38;;;4.40;99.90;;;;;;4976203;28;20039;-75
2023/12/08 01:11:55;;;;;;;21.65;12.93;;;4.40;99.90;;;;;;4978306;28;20042;-80
2023/12/08 01:14:21;;;;;;;22.40;13.15;;;4.40;99.90;;;;;;4979231;28;20034;-76
2023/12/08 01:16:47;;;;;;;23.20;13.27;;;4.40;99.90;;;;;;4980067;28;20537;-80
2023/12/08 01:19:13;;;;;;;21.33;12.45;;;4.30;99.90;;;;;;4977835;28;20034;-81
2023/12/08 01:21:40;;;;;;;22.55;13.02;;;4.40;99.90;;;;;;4981028;28;20035;-80
2023/12/08 01:24:06;;;;;;;22.17;13.15;;;4.30;99.90;;;;;;4977351;28;20117;-80
2023/12/08 01:26:32;;;;;;;22.30;12.80;;;4.40;99.90;;;;;;4978024;28;20464;-79
2023/12/08 01:28:58;;;;;;;20.45;12.68;;;4.30;99.90;;;;;;4978922;28;20065;-78
2023/12/08 01:31:24;;;;;;;22.42;12.88;;;4.30;99.90;;;;;;4981625;28;20026;-80
2023/12/08 01:33:50;;;;;;;22.95;12.48;;;4.30;99.90;;;;;;4988772;28;20101;-76
2023/12/08 01:36:15;;;;;;;24.98;14.25;;;4.30;99.90;;;;;;4980064;28;20101;-78
2023/12/08 01:38:45;;;;;;;24.65;14.70;;;4.30;99.90;;;;;;4981240;28;20093;-78
2023/12/08 01:41:16;;;;;;;24.05;13.02;;;4.30;99.90;;;;;;4981184;28;20030;-75
2023/12/08 01:43:43;;;;;;;25.25;12.82;;;4.30;99.90;;;;;;4981176;28;20022;-77
2023/12/08 01:46:15;;;;;;;24.33;13.45;;;4.30;99.90;;;;;;4979491;28;20042;-80
2023/12/08 01:48:45;;;;;;;23.35;13.70;;;4.30;99.90;;;;;;4975812;28;20122;-79
2023/12/08 01:51:13;;;;;;;22.27;12.43;;;4.30;99.90;;;;;;4977271;28;20077;-79
2023/12/08 01:53:40;;;;;;;24.58;15.05;;;4.30;99.90;;;;;;4974848;28;20030;-81
2023/12/08 01:56:08;;;;;;;24.98;13.35;;;4.30;99.90;;;;;;4974471;28;20027;-80
2023/12/08 01:58:39;;;;;;;24.83;13.07;;;4.30;99.90;;;;;;4974623;28;20062;-77
2023/12/08 02:01:05;;;;;;;22.27;13.98;;;4.30;99.90;;;;;;4974559;28;20058;-80
2023/12/08 02:03:35;;;;;;;22.40;14.15;;;4.30;99.90;;;;;;4976105;28;20513;-80
2023/12/08 02:06:01;;;;;;;24.95;13.52;;;4.30;99.90;;;;;;4975906;28;20035;-80
2023/12/08 02:08:27;;;;;;;22.30;13.48;;;4.20;99.90;;;;;;4974818;28;20023;-76
2023/12/08 02:10:54;;;;;;;21.98;12.23;;;4.30;99.90;;;;;;4974209;28;20050;-79
2023/12/08 02:13:21;;;;;;;22.35;12.85;;;4.20;99.90;;;;;;4975076;28;20031;-79
2023/12/08 02:15:58;;;;;;;22.95;13.43;;;4.20;99.90;;;;;;4974290;28;20030;-79
2023/12/08 02:18:25;;;;;;;22.83;13.10;;;4.20;99.90;;;;;;4974133;28;20453;-80
2023/12/08 02:20:51;;;;;;;22.67;12.90;;;4.30;99.90;;;;;;4973887;28;20034;-77
2023/12/08 02:23:17;;;;;;;20.40;12.55;;;4.30;99.90;;;;;;4974878;28;20359;-79
2023/12/08 02:25:44;;;;;;;21.63;12.52;;;4.20;99.90;;;;;;4975120;28;20127;-79
2023/12/08 02:28:10;;;;;;;21.48;12.82;;;4.20;99.90;;;;;;4977016;28;20077;-78
2023/12/08 02:30:36;;;;;;;21.63;12.68;;;4.20;99.90;;;;;;4975736;28;20030;-81
2023/12/08 02:33:08;;;;;;;19.92;11.82;;;4.20;99.90;;;;;;4974880;28;20042;-78
2023/12/08 02:35:38;;;;;;;20.00;12.95;;;4.20;99.90;;;;;;4974768;28;20033;-78
2023/12/08 02:38:08;;;;;;;23.13;13.88;;;4.20;99.90;;;;;;4974516;28;20074;-79
2023/12/08 02:40:35;;;;;;;20.90;12.70;;;4.20;99.90;;;;;;4962655;28;20106;-79
2023/12/08 02:43:04;;;;;;;20.85;12.63;;;4.20;99.90;;;;;;4975504;28;20027;-75
2023/12/08 02:45:30;;;;;;;20.05;12.00;;;4.20;99.90;;;;;;4976576;28;20534;-78
2023/12/08 02:47:56;;;;;;;22.00;12.40;;;4.20;99.90;;;;;;4976918;28;20034;-79
2023/12/08 02:50:22;;;;;;;21.77;12.13;;;4.20;99.90;;;;;;4974894;28;20033;-75
2023/12/08 02:52:48;;;;;;;22.88;12.45;;;4.30;99.90;;;;;;4975658;28;20022;-80
2023/12/08 02:55:14;;;;;;;22.90;13.02;;;4.20;99.90;;;;;;4977416;28;20102;-76
2023/12/08 02:57:40;;;;;;;21.13;11.27;;;4.20;99.90;;;;;;4975857;28;20370;-79
2023/12/08 03:00:07;;;;;;;20.30;12.23;;;4.20;99.90;;;;;;4976582;28;20039;-77
2023/12/08 03:02:33;;;;;;;25.50;11.73;;;4.20;99.90;;;;;;4977243;28;20029;-79
2023/12/08 03:04:58;;;;;;;21.75;11.73;;;4.10;99.90;;;;;;4961002;28;20098;-79
2023/12/08 03:07:24;;;;;;;22.02;12.55;;;4.10;99.90;;;;;;4977289;28;20058;-78
2023/12/08 03:09:50;;;;;;;21.70;12.43;;;4.10;99.90;;;;;;4979191;28;20039;-77
2023/12/08 03:12:16;;;;;;;21.98;12.32;;;4.10;99.90;;;;;;4979366;28;20035;-78
2023/12/08 03:14:43;;;;;;;22.42;12.68;;;4.10;99.90;;;;;;4976878;28;20051;-81
2023/12/08 03:17:09;;;;;;;21.83;12.88;;;4.10;99.90;;;;;;4972808;28;20114;-78
2023/12/08 03:19:35;;;;;;;21.60;11.77;;;4.10;99.90;;;;;;4971652;28;20054;-76
2023/12/08 03:22:01;;;;;;;23.90;12.27;;;4.10;99.90;;;;;;4976381;28;20039;-80
2023/12/08 03:24:26;;;;;;;23.85;13.27;;;4.20;99.90;;;;;;4974437;28;20033;-76
2023/12/08 03:26:52;;;;;;;21.00;12.13;;;4.20;99.90;;;;;;4976758;28;20426;-79
2023/12/08 03:29:18;;;;;;;20.77;11.43;;;4.10;99.90;;;;;;4978320;28;20053;-75
2023/12/08 03:31:44;;;;;;;20.83;12.00;;;4.10;99.90;;;;;;4974189;28;20111;-77
2023/12/08 03:34:10;;;;;;;22.23;12.02;;;4.10;99.90;;;;;;4974419;28;20096;-80
2023/12/08 03:36:36;;;;;;;21.52;11.48;;;4.20;99.90;;;;;;4973939;28;20034;-76
2023/12/08 03:39:02;;;;;;;21.23;12.40;;;4.20;99.90;;;;;;4974370;28;20393;-77
2023/12/08 03:41:28;;;;;;;22.02;12.43;;;4.20;99.90;;;;;;4974006;28;20037;-80
2023/12/08 03:43:53;;;;;;;22.17;13.27;;;4.20;99.90;;;;;;4974142;28;20077;-79
2023/12/08 03:46:19;;;;;;;22.33;12.32;;;4.10;99.90;;;;;;4975087;28;20015;-79
2023/12/08 03:48:46;;;;;;;20.95;12.38;;;4.20;99.90;;;;;;4974664;28;20035;-79
2023/12/08 03:51:12;;;;;;;24.15;13.13;;;4.20;99.90;;;;;;4973600;28;20134;-80
2023/12/08 03:53:38;;;;;;;22.45;12.90;;;4.10;99.90;;;;;;4973208;28;20105;-79
2023/12/08 03:56:06;;;;;;;24.05;12.30;;;4.10;99.90;;;;;;4972523;28;20131;-80
2023/12/08 03:58:32;;;;;;;26.10;13.23;;;4.10;99.90;;;;;;4973587;28;20061;-78
2023/12/08 04:00:57;;;;;;;24.23;13.90;;;4.10;99.90;;;;;;4973188;28;20490;-74
2023/12/08 04:03:23;;;;;;;21.20;11.32;;;4.20;99.90;;;;;;4974045;28;20022;-80
2023/12/08 04:05:50;;;;;;;20.00;11.50;;;4.10;99.90;;;;;;4972815;28;20090;-79
2023/12/08 04:08:16;;;;;;;22.13;11.35;;;4.00;99.90;;;;;;4975864;28;20023;-76
2023/12/08 04:10:42;;;;;;;20.88;12.18;;;4.10;99.90;;;;;;4977635;28;20641;-79
2023/12/08 04:13:08;;;;;;;22.92;11.88;;;4.00;99.90;;;;;;4977124;28;20545;-79
2023/12/08 04:15:33;;;;;;;22.73;13.25;;;4.00;99.90;;;;;;4976575;28;20023;-78
2023/12/08 04:17:59;;;;;;;20.08;12.10;;;4.00;99.90;;;;;;4970831;28;20026;-80
2023/12/08 04:20:25;;;;;;;22.98;12.25;;;4.00;99.90;;;;;;4976080;28;20039;-79
2023/12/08 04:22:51;;;;;;;23.52;12.98;;;4.00;99.90;;;;;;4976005;28;20390;-80
2023/12/08 04:25:17;;;;;;;19.52;10.98;;;4.00;99.90;;;;;;4976503;28;20030;-75
2023/12/08 04:27:43;;;;;;;22.48;12.90;;;4.10;99.90;;;;;;4976506;28;20138;-74
2023/12/08 04:30:11;;;;;;;20.73;11.88;;;4.00;99.90;;;;;;4977213;28;20042;-79
2023/12/08 04:32:37;;;;;;;21.65;11.93;;;4.00;99.90;;;;;;4976289;28;20019;-77
2023/12/08 04:35:03;;;;;;;24.48;12.90;;;4.00;99.90;;;;;;4976385;28;20085;-79
2023/12/08 04:37:29;;;;;;;21.13;11.77;;;4.10;99.90;;;;;;4976029;28;20094;-81
2023/12/08 04:39:55;;;;;;;18.95;11.80;;;4.10;99.90;;;;;;4974952;28;20518;-78
2023/12/08 04:42:21;;;;;;;20.48;12.43;;;4.10;99.90;;;;;;4967819;28;20062;-79
2023/12/08 04:44:47;;;;;;;21.60;13.05;;;4.10;99.90;;;;;;4975988;28;20398;-76
2023/12/08 04:47:13;;;;;;;21.30;12.60;;;4.10;99.90;;;;;;4975581;28;20027;-79
2023/12/08 04:49:39;;;;;;;26.92;14.25;;;4.10;99.90;;;;;;4978341;28;20110;-79
2023/12/08 04:52:05;;;;;;;26.63;13.60;;;4.10;99.90;;;;;;4972301;28;20563;-76
2023/12/08 04:54:30;;;;;;;23.75;13.80;;;4.00;99.90;;;;;;4968177;28;20387;-80
2023/12/08 04:56:56;;;;;;;29.23;15.05;;;4.10;99.90;;;;;;4966382;28;20015;-80
2023/12/08 04:59:23;;;;;;;25.77;15.27;;;4.10;99.90;;;;;;4955787;29;20113;-75
2023/12/08 05:01:52;;;;;;;23.33;14.10;;;4.10;99.90;;;;;;4956692;29;20016;-80
2023/12/08 05:04:21;;;;;;;23.85;14.48;;;4.10;99.90;;;;;;4956134;29;20028;-81
2023/12/08 05:06:48;;;;;;;26.20;15.23;;;4.10;99.90;;;;;;4973592;28;20019;-80
2023/12/08 05:09:14;;;;;;;22.88;13.35;;;4.00;99.90;;;;;;4974958;28;20027;-80
2023/12/08 05:11:40;;;;;;;21.52;13.88;;;4.00;99.90;;;;;;4960913;28;20576;-80
2023/12/08 05:14:06;;;;;;;23.00;13.98;;;4.00;99.90;;;;;;4981146;28;20035;-75
2023/12/08 05:16:32;;;;;;;24.02;13.77;;;4.00;99.90;;;;;;4980003;28;20027;-74
2023/12/08 05:18:58;;;;;;;22.08;14.25;;;4.00;99.90;;;;;;4975930;28;20038;-80
2023/12/08 05:21:24;;;;;;;21.20;13.35;;;4.00;99.90;;;;;;4974444;28;20054;-80
2023/12/08 05:23:50;;;;;;;28.30;15.50;;;4.00;99.90;;;;;;4975131;28;20035;-80
2023/12/08 05:26:16;;;;;;;27.42;16.23;;;4.00;99.90;;;;;;4974868;28;20023;-78
2023/12/08 05:28:42;;;;;;;23.92;16.40;;;4.00;99.90;;;;;;4975847;28;20401;-78
2023/12/08 05:31:08;;;;;;;26.42;15.40;;;4.10;99.90;;;;;;4975382;28;20031;-81
2023/12/08 05:33:34;;;;;;;25.00;15.35;;;4.10;99.90;;;;;;4975684;28;20457;-81
2023/12/08 05:36:00;;;;;;;25.00;15.32;;;4.10;99.90;;;;;;4974688;28;20034;-80
2023/12/08 05:38:26;;;;;;;24.58;14.40;;;4.00;99.90;;;;;;4974201;28;20478;-78
2023/12/08 05:40:52;;;;;;;26.38;15.95;;;4.00;99.90;;;;;;4974624;28;20478;-80
2023/12/08 05:43:18;;;;;;;25.50;14.98;;;4.00;99.90;;;;;;4974245;28;20022;-79
2023/12/08 05:45:44;;;;;;;31.08;14.80;;;4.00;99.90;;;;;;4974605;28;20031;-80
2023/12/08 05:48:11;;;;;;;24.40;15.38;;;4.00;99.90;;;;;;4974204;28;20070;-81
2023/12/08 05:50:37;;;;;;;22.90;15.18;;;4.00;99.90;;;;;;4974518;28;20026;-80
2023/12/08 05:53:03;;;;;;;26.25;14.98;;;3.90;99.90;;;;;;4974109;28;20019;-79
2023/12/08 05:55:29;;;;;;;24.23;15.48;;;3.90;99.90;;;;;;4974486;28;20034;-79
2023/12/08 05:57:55;;;;;;;32.40;17.13;;;4.00;99.90;;;;;;4974067;28;20530;-80
2023/12/08 06:00:21;;;;;;;26.45;16.38;;;4.00;99.90;;;;;;4974200;28;20389;-75
2023/12/08 06:02:46;;;;;;;26.83;16.67;;;4.00;99.90;;;;;;4973872;28;20033;-80
2023/12/08 06:05:13;;;;;;;24.27;15.13;;;4.00;99.90;;;;;;4956676;28;20062;-79
2023/12/08 06:07:39;;;;;;;25.45;14.70;;;4.00;99.90;;;;;;4974166;28;20074;-80
2023/12/08 06:10:07;;;;;;;23.63;14.60;;;4.00;99.90;;;;;;4973826;28;20077;-80
2023/12/08 06:12:34;;;;;;;27.02;16.92;;;3.90;99.90;;;;;;4973943;28;20073;-79
2023/12/08 06:15:00;;;;;;;24.23;15.57;;;3.90;99.90;;;;;;4973759;28;20034;-79
2023/12/08 06:17:27;;;;;;;27.67;16.77;;;3.90;99.90;;;;;;4973984;28;20543;-77
2023/12/08 06:19:53;;;;;;;25.63;16.80;;;3.90;99.90;;;;;;4973663;28;20031;-79
2023/12/08 06:22:19;;;;;;;25.73;16.83;;;3.90;99.90;;;;;;4974148;28;20030;-79
2023/12/08 06:24:45;;;;;;;24.98;16.95;;;3.90;99.90;;;;;;4973470;28;20031;-79
2023/12/08 06:27:11;;;;;;;27.55;17.00;;;3.90;99.90;;;;;;4973616;28;20109;-79
2023/12/08 06:29:37;;;;;;;27.65;16.50;;;3.90;99.90;;;;;;4973306;28;20038;-79
2023/12/08 06:32:05;;;;;;;24.08;15.95;;;3.90;99.90;;;;;;4972636;28;20434;-77
2023/12/08 06:34:31;;;;;;;28.05;15.27;;;3.90;99.90;;;;;;4973669;28;20022;-76
2023/12/08 06:36:57;;;;;;;23.73;14.60;;;3.90;99.90;;;;;;4973305;28;20461;-79
2023/12/08 06:39:23;;;;;;;28.27;15.52;;;3.90;99.90;;;;;;4973362;28;20049;-76
2023/12/08 06:41:49;;;;;;;25.38;13.65;;;4.00;99.90;;;;;;4973317;28;20026;-80
2023/12/08 06:44:15;;;;;;;24.98;15.05;;;4.00;99.90;;;;;;4973428;28;20034;-80
2023/12/08 06:46:42;;;;;;;26.67;13.90;;;4.00;99.90;;;;;;4973358;28;20022;-80
2023/12/08 06:49:07;;;;;;;22.23;12.82;;;3.90;99.90;;;;;;4973330;28;20454;-78
2023/12/08 06:51:37;;;;;;;24.23;13.30;;;3.90;99.90;;;;;;4973331;28;20030;-79
2023/12/08 06:54:04;;;;;;;23.70;14.23;;;3.90;99.90;;;;;;4972932;28;20038;-79
2023/12/08 06:56:30;;;;;;;24.70;14.90;;;4.00;99.90;;;;;;4973506;28;20023;-80
2023/12/08 06:58:57;;;;;;;22.23;14.15;;;4.00;99.90;;;;;;4972888;28;20026;-79
2023/12/08 07:01:23;;;;;;;28.38;15.55;;;4.00;99.90;;;;;;4973551;28;20035;-79
2023/12/08 07:03:49;;;;;;;24.88;15.10;;;4.00;99.90;;;;;;4972842;28;20467;-79
2023/12/08 07:06:15;;;;;;;22.92;13.48;;;4.00;99.90;;;;;;4973256;28;20038;-79
2023/12/08 07:08:41;;;;;;;21.58;13.18;;;4.00;99.90;;;;;;4972889;28;20080;-78
2023/12/08 07:11:08;;;;;;;22.02;13.68;;;4.00;99.90;;;;;;4973213;28;20101;-79
2023/12/08 07:13:35;;;;;;;22.88;13.82;;;4.00;99.90;;;;;;4972684;28;20030;-79
2023/12/08 07:16:01;;;;;;;24.27;15.25;;;4.00;99.90;;;;;;4972929;28;20081;-79
2023/12/08 07:18:27;;;;;;;22.30;14.07;;;4.10;99.90;;;;;;4972974;28;20034;-79
2023/12/08 07:20:53;;;;;;;25.45;13.90;;;4.10;99.90;;;;;;4973023;28;20034;-77
2023/12/08 07:23:19;;;;;;;24.60;13.65;;;4.10;99.90;;;;;;4973013;28;20029;-81
2023/12/08 07:25:45;;;;;;;20.85;13.35;;;4.10;99.90;;;;;;4972809;28;20569;-77
2023/12/08 07:28:11;;;;;;;27.67;14.27;;;4.10;99.90;;;;;;4972366;28;20019;-76
2023/12/08 07:30:37;;;;;;;24.45;15.10;;;4.10;99.90;;;;;;4972844;28;20105;-80
2023/12/08 07:33:04;;;;;;;26.85;16.83;;;4.10;99.90;;;;;;4972681;28;20027;-79
2023/12/08 07:35:30;;;;;;;36.20;19.98;;;4.10;99.90;;;;;;4972798;28;20427;-78
2023/12/08 07:37:55;;;;;;;38.10;23.02;;;4.20;99.90;;;;;;4973089;28;20028;-80
2023/12/08 07:40:21;;;;;;;37.00;22.25;;;4.20;99.90;;;;;;4972658;28;20066;-80
2023/12/08 07:42:47;;;;;;;33.45;21.38;;;4.10;99.90;;;;;;4973239;28;20031;-80
2023/12/08 07:45:13;;;;;;;31.38;18.75;;;4.10;99.90;;;;;;4976807;28;20027;-79
2023/12/08 07:47:40;;;;;;;31.50;19.85;;;4.10;99.90;;;;;;4976434;28;20117;-77
2023/12/08 07:50:07;;;;;;;32.75;18.40;;;3.90;99.90;;;;;;4976439;28;20474;-80
2023/12/08 07:52:33;;;;;;;31.40;20.13;;;3.90;99.90;;;;;;4976306;28;20026;-79
2023/12/08 07:54:59;;;;;;;36.80;21.52;;;3.90;99.90;;;;;;4976662;28;20106;-80
2023/12/08 07:57:25;;;;;;;43.85;28.70;;;4.00;99.90;;;;;;4976243;28;20117;-80
2023/12/08 07:59:52;;;;;;;40.58;26.58;;;4.00;99.90;;;;;;4976415;28;20035;-81
2023/12/08 08:02:18;;;;;;;37.28;22.90;;;4.00;99.90;;;;;;4976125;28;20462;-80
2023/12/08 08:04:44;;;;;;;38.67;25.17;;;3.90;99.90;;;;;;4976464;28;20031;-78
2023/12/08 08:07:09;;;;;;;44.58;25.98;;;3.90;99.90;;;;;;4975968;28;20030;-78
2023/12/08 08:09:35;;;;;;;43.35;25.92;;;3.90;99.90;;;;;;4975842;28;20097;-80
2023/12/08 08:12:02;;;;;;;47.15;24.42;;;4.00;99.90;;;;;;4975936;28;20023;-79
2023/12/08 08:14:28;;;;;;;39.78;25.05;;;4.00;99.90;;;;;;4976242;28;20030;-79
2023/12/08 08:16:54;;;;;;;32.42;20.98;;;4.00;99.90;;;;;;4976177;28;20474;-80
2023/12/08 08:19:19;;;;;;;33.60;20.55;;;4.00;99.90;;;;;;4975857;28;20057;-76
2023/12/08 08:21:46;;;;;;;31.77;18.48;;;4.00;99.90;;;;;;4976098;28;20490;-80
2023/12/08 08:24:11;;;;;;;33.22;20.70;;;3.90;99.90;;;;;;4975894;28;20023;-79
2023/12/08 08:26:42;;;;;;;36.35;22.17;;;4.00;99.90;;;;;;4976116;28;20058;-79
2023/12/08 08:29:09;;;;;;;40.05;21.35;;;4.10;99.90;;;;;;4975692;28;20534;-80
2023/12/08 08:31:35;;;;;;;30.52;19.95;;;4.10;99.90;;;;;;4975557;28;20050;-79
2023/12/08 08:34:03;;;;;;;32.33;19.10;;;4.10;99.90;;;;;;4975844;28;20031;-77
2023/12/08 08:36:29;;;;;;;28.52;18.05;;;4.20;99.90;;;;;;4975512;28;20375;-73
2023/12/08 08:38:55;;;;;;;33.38;18.15;;;4.30;99.90;;;;;;4975744;28;20470;-76
2023/12/08 08:41:22;;;;;;;30.02;17.67;;;4.40;99.90;;;;;;4975484;28;20058;-79
2023/12/08 08:43:48;;;;;;;30.15;18.90;;;4.40;99.90;;;;;;4975615;28;20030;-79
2023/12/08 08:46:14;;;;;;;29.60;18.52;;;4.50;99.90;;;;;;4975335;28;20022;-79
2023/12/08 08:48:40;;;;;;;26.95;16.15;;;4.50;99.90;;;;;;4975254;28;20035;-77
2023/12/08 08:51:06;;;;;;;31.63;19.30;;;4.40;99.90;;;;;;4975061;28;20101;-79
2023/12/08 08:53:33;;;;;;;37.22;21.17;;;4.30;99.90;;;;;;4975562;28;20038;-79
2023/12/08 08:55:59;;;;;;;29.40;19.25;;;4.40;99.90;;;;;;4974098;28;20019;-76
2023/12/08 08:58:25;;;;;;;33.65;20.92;;;4.50;99.90;;;;;;4975127;28;20406;-78
2023/12/08 09:00:51;;;;;;;29.98;19.83;;;4.50;99.90;;;;;;4975151;28;20125;-79
2023/12/08 09:03:17;;;;;;;35.50;22.58;;;4.60;99.90;;;;;;4975168;28;20173;-79
2023/12/08 09:05:43;;;;;;;37.75;22.20;;;4.50;99.90;;;;;;4975292;28;20382;-79
2023/12/08 09:08:09;;;;;;;43.33;22.30;;;4.50;99.90;;;;;;4975076;28;20026;-75
2023/12/08 09:10:36;;;;;;;31.23;20.85;;;4.50;99.90;;;;;;4962044;28;20129;-73
2023/12/08 09:13:02;;;;;;;37.58;21.40;;;4.50;99.90;;;;;;4974649;28;20031;-76
2023/12/08 09:15:28;;;;;;;34.47;21.02;;;4.40;99.90;;;;;;4975174;28;20058;-75
2023/12/08 09:17:55;;;;;;;35.75;23.02;;;4.40;99.90;;;;;;4975055;28;20058;-81
2023/12/08 09:20:22;;;;;;;31.95;21.38;;;4.50;99.90;;;;;;4974734;28;20041;-78
2023/12/08 09:22:47;;;;;;;34.03;21.23;;;4.60;99.90;;;;;;4975390;28;20110;-80
2023/12/08 09:25:13;;;;;;;31.83;18.70;;;4.60;99.90;;;;;;4957598;28;20106;-80
2023/12/08 09:27:39;;;;;;;29.25;17.42;;;4.60;99.90;;;;;;4974925;28;20031;-79
2023/12/08 09:30:06;;;;;;;31.10;18.58;;;4.60;99.90;;;;;;4974371;28;20058;-81
2023/12/08 09:32:32;;;;;;;27.33;16.48;;;4.60;99.90;;;;;;4974660;28;20027;-80
2023/12/08 09:34:57;;;;;;;31.52;16.63;;;4.70;99.90;;;;;;4974327;28;20102;-80
2023/12/08 09:37:23;;;;;;;30.30;17.73;;;4.70;99.90;;;;;;4974879;28;20038;-80
2023/12/08 09:39:49;;;;;;;28.08;16.63;;;4.70;99.90;;;;;;4974030;28;20073;-79
2023/12/08 09:42:29;;;;;;;26.65;16.65;;;4.70;99.90;;;;;;4974525;28;20437;-80
2023/12/08 09:44:55;;;;;;;28.38;15.90;;;4.50;99.90;;;;;;4963206;28;20070;-80
2023/12/08 09:47:24;;;;;;;31.80;17.65;;;4.60;99.90;;;;;;4974205;28;20478;-79
2023/12/08 09:49:52;;;;;;;26.08;16.23;;;4.60;99.90;;;;;;4974464;28;20039;-80
2023/12/08 09:52:18;;;;;;;32.47;18.30;;;4.70;99.90;;;;;;4973956;28;20022;-80
2023/12/08 09:54:45;;;;;;;26.85;16.38;;;4.80;99.90;;;;;;4974602;28;20117;-80
2023/12/08 09:57:12;;;;;;;28.65;16.77;;;4.60;99.90;;;;;;4974131;28;20022;-80
2023/12/08 09:59:38;;;;;;;28.27;16.38;;;4.70;99.90;;;;;;4974171;28;20054;-79
2023/12/08 10:02:07;;;;;;;34.78;19.48;;;4.60;99.90;;;;;;4973977;28;20022;-79
2023/12/08 10:04:35;;;;;;;27.52;16.88;;;4.70;99.90;;;;;;4973778;28;20026;-80
2023/12/08 10:07:05;;;;;;;29.23;18.50;;;4.70;99.90;;;;;;4973909;28;20409;-80
2023/12/08 10:09:32;;;;;;;27.08;17.42;;;4.80;99.90;;;;;;4973465;28;20035;-79
2023/12/08 10:11:58;;;;;;;31.23;19.25;;;4.80;99.90;;;;;;4973970;28;20038;-80
2023/12/08 10:14:25;;;;;;;39.15;23.10;;;4.80;99.90;;;;;;4973865;28;20035;-81
2023/12/08 10:16:52;;;;;;;36.00;21.92;;;4.90;99.90;;;;;;4974046;28;20015;-81
2023/12/08 10:19:21;;;;;;;31.17;19.15;;;4.90;99.90;;;;;;4973726;28;20489;-80
2023/12/08 10:22:03;;;;;;;30.95;18.10;;;5.00;99.90;;;;;;4973679;28;20027;-76
2023/12/08 10:24:30;;;;;;;28.17;15.45;;;5.00;99.90;;;;;;4974292;28;20117;-80
2023/12/08 10:26:59;;;;;;;27.58;16.83;;;5.10;99.90;;;;;;4973600;28;20026;-80
2023/12/08 10:29:32;;;;;;;33.72;16.98;;;5.10;99.90;;;;;;4973599;28;20035;-80
2023/12/08 10:31:58;;;;;;;;;;;5.10;99.90;;;;;;4974026;28;20030;-80
2023/12/08 10:34:25;;;;;;;27.95;16.42;;;5.20;99.90;;;;;;4973462;28;19928;-75
2023/12/08 10:36:52;;;;;;;27.73;15.02;;;5.30;99.90;;;;;;4956165;28;20027;-78
2023/12/08 10:39:19;;;;;;;29.75;17.98;;;5.40;99.90;;;;;;4956044;28;20031;-75
2023/12/08 10:41:51;;;;;;;31.23;17.33;;;5.40;99.90;;;;;;4973651;28;20034;-79
2023/12/08 10:44:26;;;;;;;28.80;15.65;;;5.60;99.90;;;;;;4972969;28;20069;-79
2023/12/08 10:46:52;;;;;;;24.92;14.88;;;5.60;99.90;;;;;;4973565;28;20398;-78
2023/12/08 10:49:19;;;;;;;26.15;16.23;;;5.70;99.90;;;;;;4973300;28;20081;-79
2023/12/08 10:51:49;;;;;;;22.33;13.45;;;5.70;99.90;;;;;;4973059;28;20037;-80
2023/12/08 10:54:17;;;;;;;24.25;14.55;;;5.80;99.90;;;;;;4973390;28;20030;-80
2023/12/08 10:56:46;;;;;;;26.23;14.50;;;5.90;99.90;;;;;;4973321;28;20114;-80
2023/12/08 10:59:18;;;;;;;25.52;15.50;;;5.90;99.90;;;;;;4973134;28;20022;-80
2023/12/08 11:01:46;;;;;;;27.80;16.63;;;5.90;99.90;;;;;;4972992;28;20114;-80
2023/12/08 11:04:17;;;;;;;28.27;15.40;;;5.90;99.90;;;;;;4973034;28;20023;-76
2023/12/08 11:06:59;;;;;;;25.90;16.10;;;5.80;99.90;;;;;;4972946;28;20034;-75
2023/12/08 11:09:28;;;;;;;27.33;15.07;;;5.90;99.90;;;;;;4972964;28;20358;-80
2023/12/08 11:11:55;;;;;;;32.60;15.77;;;5.80;99.90;;;;;;4973199;28;20114;-77
2023/12/08 11:14:42;;;;;;;29.15;17.30;;;5.80;99.90;;;;;;4972866;28;20027;-77
2023/12/08 11:17:31;;;;;;;31.75;17.35;;;5.80;99.90;;;;;;4973588;28;20018;-81
2023/12/08 11:19:58;;;;;;;29.60;17.20;;;5.80;99.90;;;;;;4979442;28;20489;-78
2023/12/08 11:22:25;;;;;;;28.92;15.88;;;5.90;99.90;;;;;;4979166;28;20058;-78
2023/12/08 11:24:51;;;;;;;29.20;16.85;;;5.90;99.90;;;;;;4979232;28;20435;-81
2023/12/08 11:27:36;;;;;;;31.00;19.60;;;5.90;99.90;;;;;;4979566;28;20117;-81
2023/12/08 11:30:08;;;;;;;35.33;21.25;;;6.00;99.90;;;;;;4979368;28;20494;-75
2023/12/08 11:32:47;;;;;;;32.33;20.65;;;6.10;99.90;;;;;;4979467;28;20101;-75
2023/12/08 11:35:16;;;;;;;36.58;21.63;;;6.00;99.90;;;;;;4968427;28;20055;-74
2023/12/08 11:37:45;;;;;;;33.63;22.38;;;6.00;99.90;;;;;;4979135;28;20109;-76
2023/12/08 11:40:11;;;;;;;34.35;20.58;;;6.10;99.90;;;;;;4979319;28;20419;-81
2023/12/08 11:42:45;;;;;;;35.28;21.42;;;5.90;99.90;;;;;;4978881;28;20060;-80
2023/12/08 11:45:11;;;;;;;31.70;18.90;;;6.00;99.90;;;;;;4979370;28;20031;-81
2023/12/08 11:47:37;;;;;;;32.33;19.35;;;6.10;99.90;;;;;;4979014;28;20042;-81
2023/12/08 11:50:05;;;;;;;36.20;20.17;;;6.30;99.90;;;;;;4979294;28;20121;-78
2023/12/08 11:52:38;;;;;;;38.42;20.10;;;6.30;99.90;;;;;;4979366;28;20018;-78
2023/12/08 11:55:19;;;;;;;34.50;19.92;;;6.30;99.90;;;;;;4979165;28;20169;-74
2023/12/08 11:57:54;;;;;;;36.03;19.92;;;6.30;99.90;;;;;;4967144;28;20035;-80
2023/12/08 12:00:21;;;;;;;30.00;18.83;;;6.40;99.90;;;;;;4979316;28;20046;-81
2023/12/08 12:02:49;;;;;;;35.95;19.40;;;6.40;99.90;;;;;;4979054;28;20106;-80
2023/12/08 12:05:16;;;;;;;31.80;19.52;;;6.50;99.90;;;;;;4979021;28;20477;-80
2023/12/08 12:07:46;;;;;;;34.65;18.70;;;6.50;99.90;;;;;;4979062;28;20027;-80
2023/12/08 12:10:15;;;;;;;39.72;22.30;;;6.60;99.90;;;;;;4978810;28;20046;-76
2023/12/08 12:12:44;;;;;;;35.88;21.38;;;6.60;99.90;;;;;;4978858;28;20050;-80
2023/12/08 12:15:11;;;;;;;34.42;20.95;;;6.40;99.90;;;;;;4979195;28;20023;-81
2023/12/08 12:17:41;;;;;;;36.13;21.77;;;6.50;99.90;;;;;;4979363;28;20106;-81
2023/12/08 12:20:08;;;;;;;40.63;21.77;;;6.50;99.90;;;;;;4978560;28;20113;-81
2023/12/08 12:22:34;;;;;;;34.00;21.02;;;6.40;99.90;;;;;;4979198;28;20034;-81
2023/12/08 12:25:00;;;;;;;39.83;22.45;;;6.40;99.90;;;;;;4978745;28;20105;-81
2023/12/08 12:27:26;;;;;;;32.47;21.98;;;6.40;99.90;;;;;;4979064;28;20031;-81
2023/12/08 12:29:53;;;;;;;36.22;23.10;;;6.20;99.90;;;;;;4976272;28;20110;-76
2023/12/08 12:32:19;;;;;;;44.30;25.40;;;5.90;99.90;;;;;;4975954;28;20055;-80
2023/12/08 12:34:45;;;;;;;35.35;22.27;;;6.00;99.90;;;;;;4975506;28;20081;-79
2023/12/08 12:37:11;;;;;;;39.58;22.50;;;6.10;99.90;;;;;;4975882;28;20026;-76